createdAt,value
2022-10-01T00:01:18.059Z,83.01
2022-10-01T00:03:45.271Z,83.19
2022-10-01T00:06:18.111Z,83.23
2022-10-01T00:08:49.039Z,83.11
2022-10-01T00:11:25.475Z,83.42
2022-10-01T00:13:53.720Z,83.25
2022-10-01T00:16:23.904Z,82.59
2022-10-01T00:18:51.327Z,83.08
2022-10-01T00:21:21.414Z,82.75
2022-10-01T00:23:53.484Z,82.47
2022-10-01T00:26:23.150Z,82.84
2022-10-01T00:28:55.876Z,82.45
2022-10-01T00:31:23.118Z,82.90
2022-10-01T00:33:53.303Z,83.46
2022-10-01T00:36:20.452Z,83.74
2022-10-01T00:38:48.475Z,84.21
2022-10-01T00:41:17.074Z,84.50
2022-10-01T00:44:25.322Z,84.40
2022-10-01T00:46:54.142Z,84.68
2022-10-01T00:49:26.355Z,85.16
2022-10-01T00:52:02.698Z,85.72
2022-10-01T00:54:39.624Z,85.60
2022-10-01T00:57:07.503Z,85.73
2022-10-01T00:59:35.658Z,85.85
2022-10-01T01:02:02.549Z,86.31
2022-10-01T01:04:29.731Z,86.56
2022-10-01T01:07:00.006Z,86.44
2022-10-01T01:09:33.911Z,86.12
2022-10-01T01:12:26.847Z,86.29
2022-10-01T01:15:49.099Z,86.15
2022-10-01T01:18:28.581Z,86.38
2022-10-01T01:21:43.733Z,85.23
2022-10-01T01:24:46.362Z,85.38
2022-10-01T01:27:30.447Z,86.09
2022-10-01T01:30:18.543Z,85.71
2022-10-01T01:32:55.437Z,86.45
2022-10-01T01:35:31.757Z,86.90
2022-10-01T01:38:03.510Z,87.29
2022-10-01T01:40:39.065Z,87.63
2022-10-01T01:43:11.346Z,86.96
2022-10-01T01:45:40.515Z,87.03
2022-10-01T01:48:10.146Z,87.84
2022-10-01T01:50:52.593Z,87.96
2022-10-01T01:53:20.422Z,88.27
2022-10-01T01:55:49.472Z,89.66
2022-10-01T01:58:20.405Z,89.54
2022-10-01T02:00:52.578Z,89.59
2022-10-01T02:03:26.049Z,89.71
2022-10-01T02:06:33.604Z,89.74
2022-10-01T02:09:11.601Z,90.32
2022-10-01T02:11:50.687Z,90.84
2022-10-01T02:14:37.301Z,91.04
2022-10-01T02:17:29.619Z,91.69
2022-10-01T02:20:05.939Z,91.84
2022-10-01T02:23:25.024Z,91.52
2022-10-01T02:25:58.588Z,91.84
2022-10-01T02:28:25.660Z,91.99
2022-10-01T02:30:56.228Z,91.88
2022-10-01T02:33:30.932Z,92.60
2022-10-01T02:35:59.861Z,92.43
2022-10-01T02:38:28.458Z,93.73
2022-10-01T02:41:01.178Z,93.42
2022-10-01T02:43:33.227Z,93.74
2022-10-01T02:46:07.131Z,94.31
2022-10-01T02:48:34.429Z,95.39
2022-10-01T02:51:35.030Z,93.63
2022-10-01T02:54:38.902Z,91.81
2022-10-01T02:57:24.935Z,92.24
2022-10-01T02:59:52.591Z,94.26
2022-10-01T03:02:20.735Z,94.60
2022-10-01T03:04:48.682Z,96.16
2022-10-01T03:07:16.945Z,97.22
2022-10-01T03:09:43.947Z,97.20
2022-10-01T03:12:11.137Z,97.17
2022-10-01T03:14:39.593Z,97.47
2022-10-01T03:17:07.417Z,99.29
2022-10-01T03:19:34.365Z,100.00
2022-10-01T03:22:01.290Z,100.00
2022-10-01T03:24:28.498Z,100.00
2022-10-01T03:26:57.008Z,100.00
2022-10-01T03:29:24.952Z,100.00
2022-10-01T03:31:52.420Z,100.00
2022-10-01T03:34:19.691Z,99.55
2022-10-01T03:36:47.172Z,100.00
2022-10-01T03:39:15.356Z,100.00
2022-10-01T03:41:42.284Z,100.00
2022-10-01T03:44:09.195Z,100.00
2022-10-01T03:46:36.253Z,100.00
2022-10-01T03:49:04.044Z,100.00
2022-10-01T03:51:31.896Z,100.00
2022-10-01T03:53:59.412Z,100.00
2022-10-01T03:56:26.518Z,99.21
2022-10-01T03:58:53.502Z,99.65
2022-10-01T04:01:20.973Z,99.95
2022-10-01T04:03:49.424Z,100.00
2022-10-01T04:06:16.980Z,100.00
2022-10-01T04:08:44.322Z,100.00
2022-10-01T04:11:11.813Z,100.00
2022-10-01T04:13:38.736Z,100.00
2022-10-01T04:16:07.227Z,100.00
2022-10-01T04:18:34.441Z,100.00
2022-10-01T04:21:01.558Z,100.00
2022-10-01T04:23:28.557Z,100.00
2022-10-01T04:25:59.266Z,100.00
2022-10-01T04:28:26.331Z,100.00
2022-10-01T04:31:13.267Z,100.00
2022-10-01T04:33:40.403Z,100.00
2022-10-01T04:36:07.531Z,100.00
2022-10-01T04:38:34.951Z,100.00
2022-10-01T04:41:01.942Z,100.00
2022-10-01T04:43:28.823Z,100.00
2022-10-01T04:45:55.853Z,100.00
2022-10-01T04:48:22.846Z,100.00
2022-10-01T04:50:49.873Z,100.00
2022-10-01T04:53:16.865Z,100.00
2022-10-01T04:55:43.909Z,100.00
2022-10-01T04:58:10.949Z,100.00
2022-10-01T05:00:38.031Z,100.00
2022-10-01T05:03:05.028Z,100.00
2022-10-01T05:05:33.282Z,100.00
2022-10-01T05:08:00.359Z,100.00
2022-10-01T05:10:27.770Z,100.00
2022-10-01T05:12:54.907Z,100.00
2022-10-01T05:15:22.418Z,100.00
2022-10-01T05:17:49.395Z,100.00
2022-10-01T05:20:19.037Z,100.00
2022-10-01T05:22:47.511Z,100.00
2022-10-01T05:25:14.769Z,100.00
2022-10-01T05:27:42.079Z,100.00
2022-10-01T05:30:11.014Z,100.00
2022-10-01T05:32:38.347Z,98.97
2022-10-01T05:35:07.334Z,97.94
2022-10-01T05:37:34.710Z,98.55
2022-10-01T05:40:02.266Z,100.00
2022-10-01T05:42:29.326Z,99.54
2022-10-01T05:44:56.354Z,99.34
2022-10-01T05:47:23.595Z,98.25
2022-10-01T05:49:50.608Z,96.65
2022-10-01T05:52:17.622Z,94.81
2022-10-01T05:54:44.652Z,93.91
2022-10-01T05:57:11.906Z,93.65
2022-10-01T05:59:38.841Z,93.33
2022-10-01T06:02:05.906Z,92.56
2022-10-01T06:04:34.790Z,92.70
2022-10-01T06:07:04.877Z,91.65
2022-10-01T06:09:31.878Z,89.25
2022-10-01T06:11:58.859Z,89.15
2022-10-01T06:14:25.874Z,88.12
2022-10-01T06:16:55.752Z,86.05
2022-10-01T06:19:22.685Z,86.94
2022-10-01T06:21:49.677Z,87.09
2022-10-01T06:24:16.614Z,87.95
2022-10-01T06:26:44.014Z,88.88
2022-10-01T06:29:11.137Z,87.80
2022-10-01T06:31:38.675Z,90.80
2022-10-01T06:34:05.961Z,89.20
2022-10-01T06:36:34.148Z,91.51
2022-10-01T06:39:01.154Z,91.34
2022-10-01T06:41:28.199Z,90.47
2022-10-01T06:43:55.196Z,92.27
2022-10-01T06:46:22.219Z,92.32
2022-10-01T06:48:49.297Z,91.26
2022-10-01T06:51:16.126Z,90.93
2022-10-01T06:53:43.103Z,90.75
2022-10-01T06:56:10.141Z,89.69
2022-10-01T06:58:37.608Z,89.07
2022-10-01T07:01:04.657Z,88.50
2022-10-01T07:03:31.834Z,87.40
2022-10-01T07:06:05.916Z,85.17
2022-10-01T07:08:33.516Z,84.05
2022-10-01T07:11:02.892Z,83.12
2022-10-01T07:13:30.532Z,81.79
2022-10-01T07:15:57.431Z,80.11
2022-10-01T07:18:24.528Z,79.79
2022-10-01T07:20:51.619Z,77.56
2022-10-01T07:23:18.651Z,77.46
2022-10-01T07:25:45.870Z,76.12
2022-10-01T07:28:18.827Z,75.46
2022-10-01T07:30:56.757Z,74.27
2022-10-01T07:33:23.831Z,73.61
2022-10-01T07:35:50.816Z,69.89
2022-10-01T07:38:17.877Z,70.15
2022-10-01T07:40:44.919Z,68.40
2022-10-01T07:43:14.824Z,68.29
2022-10-01T07:45:41.863Z,68.56
2022-10-01T07:48:08.890Z,68.28
2022-10-01T07:50:35.959Z,67.14
2022-10-01T07:53:02.953Z,66.15
2022-10-01T07:55:30.952Z,64.47
2022-10-01T07:58:01.658Z,63.88
2022-10-01T08:00:30.940Z,62.59
2022-10-01T08:02:57.908Z,62.53
2022-10-01T08:05:29.075Z,62.53
2022-10-01T08:08:07.503Z,62.81
2022-10-01T08:10:36.795Z,61.73
2022-10-01T08:13:14.983Z,61.26
2022-10-01T08:15:47.598Z,62.73
2022-10-01T08:18:14.854Z,64.30
2022-10-01T08:20:41.864Z,65.36
2022-10-01T08:23:11.692Z,64.42
2022-10-01T08:25:39.866Z,63.69
2022-10-01T08:28:07.872Z,62.83
2022-10-01T08:30:37.850Z,62.72
2022-10-01T08:33:04.921Z,63.44
2022-10-01T08:35:31.963Z,63.01
2022-10-01T08:38:03.201Z,62.76
2022-10-01T08:40:36.901Z,63.95
2022-10-01T08:43:07.293Z,64.42
2022-10-01T08:45:48.027Z,62.81
2022-10-01T08:48:28.293Z,58.86
2022-10-01T08:51:03.473Z,58.46
2022-10-01T08:53:36.823Z,60.70
2022-10-01T08:56:05.679Z,65.58
2022-10-01T08:58:43.606Z,66.70
2022-10-01T09:01:12.094Z,67.28
2022-10-01T09:03:39.532Z,67.21
2022-10-01T09:06:27.890Z,66.43
2022-10-01T09:09:38.025Z,67.50
2022-10-01T09:12:42.581Z,61.64
2022-10-01T09:15:33.317Z,61.91
2022-10-01T09:19:01.873Z,64.70
2022-10-01T09:21:44.490Z,66.75
2022-10-01T09:24:18.041Z,68.39
2022-10-01T09:26:51.077Z,70.12
2022-10-01T09:29:26.169Z,70.77
2022-10-01T09:31:55.259Z,70.73
2022-10-01T09:34:37.498Z,69.70
2022-10-01T09:37:32.774Z,72.37
2022-10-01T09:40:58.222Z,74.44
2022-10-01T09:43:31.377Z,75.51
2022-10-01T09:45:58.818Z,74.66
2022-10-01T09:48:55.424Z,74.11
2022-10-01T09:51:29.175Z,74.47
2022-10-01T09:54:32.666Z,76.09
2022-10-01T09:57:14.144Z,76.77
2022-10-01T09:59:51.138Z,77.15
2022-10-01T10:02:25.791Z,77.97
2022-10-01T10:05:03.790Z,76.77
2022-10-01T10:07:32.629Z,74.28
2022-10-01T10:10:16.750Z,73.08
2022-10-01T10:12:44.325Z,73.10
2022-10-01T10:15:18.108Z,74.53
2022-10-01T10:17:50.271Z,75.37
2022-10-01T10:20:39.984Z,78.78
2022-10-01T10:23:16.253Z,78.94
2022-10-01T10:25:43.592Z,78.37
2022-10-01T10:28:21.613Z,76.19
2022-10-01T10:30:49.176Z,78.13
2022-10-01T10:33:18.324Z,78.52
2022-10-01T10:35:45.268Z,80.13
2022-10-01T10:38:18.806Z,80.92
2022-10-01T10:40:46.219Z,82.19
2022-10-01T10:43:21.186Z,82.64
2022-10-01T10:45:56.562Z,85.01
2022-10-01T10:48:31.831Z,86.09
2022-10-01T10:51:02.093Z,87.30
2022-10-01T10:53:39.803Z,87.63
2022-10-01T10:56:24.411Z,87.59
2022-10-01T10:58:52.734Z,87.19
2022-10-01T11:01:28.733Z,86.04
2022-10-01T11:03:59.022Z,86.70
2022-10-01T11:06:26.229Z,85.39
2022-10-01T11:09:02.214Z,85.00
2022-10-01T11:12:05.551Z,82.36
2022-10-01T11:15:09.497Z,82.97
2022-10-01T11:18:16.563Z,82.88
2022-10-01T11:21:37.383Z,87.44
2022-10-01T11:24:46.319Z,88.42
2022-10-01T11:27:59.004Z,88.82
2022-10-01T11:30:37.580Z,88.46
2022-10-01T11:33:39.161Z,89.63
2022-10-01T11:36:55.506Z,91.57
2022-10-01T11:39:26.598Z,94.09
2022-10-01T11:42:03.177Z,94.73
2022-10-01T11:44:38.203Z,95.24
2022-10-01T11:47:32.785Z,92.65
2022-10-01T11:50:22.712Z,92.23
2022-10-01T11:53:00.802Z,91.43
2022-10-01T11:56:01.540Z,89.77
2022-10-01T11:58:55.901Z,89.76
2022-10-01T12:01:45.568Z,88.46
2022-10-01T12:04:47.117Z,88.05
2022-10-01T12:08:03.423Z,82.65
2022-10-01T12:10:38.987Z,77.01
2022-10-01T12:13:22.968Z,76.89
2022-10-01T12:16:08.816Z,74.24
2022-10-01T12:18:54.705Z,77.84
2022-10-01T12:21:37.416Z,80.41
2022-10-01T12:24:18.566Z,84.34
2022-10-01T12:27:24.213Z,86.59
2022-10-01T12:30:02.345Z,84.37
2022-10-01T12:33:12.818Z,82.07
2022-10-01T12:36:20.135Z,81.11
2022-10-01T12:39:16.667Z,82.03
2022-10-01T12:42:20.420Z,84.78
2022-10-01T12:45:43.264Z,88.16
2022-10-01T12:48:32.380Z,89.30
2022-10-01T12:51:53.222Z,91.06
2022-10-01T12:55:04.462Z,93.98
2022-10-01T12:57:43.575Z,96.74
2022-10-01T13:00:17.376Z,100.00
2022-10-01T13:03:35.413Z,100.00
2022-10-01T13:06:08.885Z,100.00
2022-10-01T13:15:03.278Z,100.00
2022-10-01T13:17:48.839Z,100.00
2022-10-01T13:20:31.345Z,100.00
2022-10-01T13:23:24.900Z,100.00
2022-10-01T13:26:39.772Z,100.00
2022-10-01T13:29:56.733Z,100.00
2022-10-01T13:32:37.461Z,100.00
2022-10-01T13:35:43.472Z,100.00
2022-10-01T13:38:29.364Z,100.00
2022-10-01T13:41:05.221Z,100.00
2022-10-01T13:43:34.336Z,100.00
2022-10-01T13:46:09.014Z,100.00
2022-10-01T13:48:38.145Z,100.00
2022-10-01T13:51:15.493Z,100.00
2022-10-01T13:53:54.961Z,96.25
2022-10-01T13:56:32.186Z,93.62
2022-10-01T13:58:59.546Z,92.10
2022-10-01T14:01:38.467Z,89.29
2022-10-01T14:04:28.599Z,88.93
2022-10-01T14:07:01.459Z,88.89
2022-10-01T14:09:41.258Z,87.72
2022-10-01T14:12:43.669Z,88.11
2022-10-01T14:15:39.592Z,85.14
2022-10-01T14:18:16.379Z,84.10
2022-10-01T14:21:15.471Z,84.71
2022-10-01T14:24:05.483Z,84.43
2022-10-01T14:27:34.046Z,83.57
2022-10-01T14:30:24.512Z,82.78
2022-10-01T14:33:25.195Z,84.00
2022-10-01T14:36:29.813Z,84.38
2022-10-01T14:39:23.062Z,84.76
2022-10-01T14:41:52.840Z,85.87
2022-10-01T14:44:40.454Z,85.73
2022-10-01T14:47:24.317Z,88.53
2022-10-01T14:49:52.075Z,84.84
2022-10-01T14:52:32.973Z,83.88
2022-10-01T14:55:06.122Z,85.01
2022-10-01T14:57:49.630Z,85.29
2022-10-01T15:00:22.623Z,86.06
2022-10-01T15:03:15.798Z,86.39
2022-10-01T15:05:44.062Z,86.43
2022-10-01T15:08:20.563Z,86.36
2022-10-01T15:10:53.077Z,87.19
2022-10-01T15:13:33.454Z,88.73
2022-10-01T15:16:00.778Z,89.33
2022-10-01T15:18:28.572Z,89.71
2022-10-01T15:21:05.768Z,90.88
2022-10-01T15:23:41.896Z,91.77
2022-10-01T15:26:12.295Z,92.13
2022-10-01T15:28:39.296Z,92.22
2022-10-01T15:31:07.878Z,92.95
2022-10-01T15:33:38.051Z,93.87
2022-10-01T15:36:07.495Z,94.21
2022-10-01T15:38:35.221Z,95.10
2022-10-01T15:41:29.891Z,96.19
2022-10-01T15:43:52.525Z,97.02
2022-10-01T15:46:31.546Z,98.00
2022-10-01T15:49:19.675Z,99.34
2022-10-01T15:52:19.721Z,100.00
2022-10-01T15:54:47.622Z,100.00
2022-10-01T15:57:23.740Z,100.00
2022-10-01T15:59:52.824Z,100.00
2022-10-01T16:02:26.551Z,100.00
2022-10-01T16:04:56.790Z,100.00
2022-10-01T16:07:29.812Z,100.00
2022-10-01T16:09:59.423Z,100.00
2022-10-01T16:12:28.535Z,100.00
2022-10-01T16:15:00.720Z,100.00
2022-10-01T16:17:35.453Z,100.00
2022-10-01T16:20:39.253Z,100.00
2022-10-01T16:23:26.198Z,100.00
2022-10-01T16:25:53.150Z,100.00
2022-10-01T16:28:28.953Z,100.00
2022-10-01T16:30:56.168Z,100.00
2022-10-01T16:33:23.083Z,100.00
2022-10-01T16:35:50.446Z,100.00
2022-10-01T16:38:17.400Z,100.00
2022-10-01T16:40:48.067Z,100.00
2022-10-01T16:43:24.481Z,100.00
2022-10-01T16:45:51.803Z,100.00
2022-10-01T16:48:22.500Z,100.00
2022-10-01T16:50:49.810Z,100.00
2022-10-01T16:53:18.393Z,100.00
2022-10-01T16:55:46.328Z,100.00
2022-10-01T16:58:13.551Z,100.00
2022-10-01T17:00:40.786Z,100.00
2022-10-01T17:03:15.495Z,100.00
2022-10-01T17:05:42.526Z,100.00
2022-10-01T17:08:12.731Z,100.00
2022-10-01T17:10:44.028Z,100.00
2022-10-01T17:13:15.490Z,100.00
2022-10-01T17:15:43.361Z,100.00
2022-10-01T17:18:10.325Z,100.00
2022-10-01T17:20:40.264Z,100.00
2022-10-01T17:23:07.742Z,100.00
2022-10-01T17:25:37.307Z,100.00
2022-10-01T17:28:08.345Z,100.00
2022-10-01T17:30:35.609Z,100.00
2022-10-01T17:33:02.683Z,100.00
2022-10-01T17:35:31.141Z,100.00
2022-10-01T17:37:58.803Z,100.00
2022-10-01T17:40:26.188Z,100.00
2022-10-01T17:42:53.161Z,100.00
2022-10-01T17:45:20.326Z,100.00
2022-10-01T17:47:49.238Z,100.00
2022-10-01T17:50:16.991Z,100.00
2022-10-01T17:52:47.763Z,100.00
2022-10-01T17:55:14.839Z,100.00
2022-10-01T17:57:41.805Z,100.00
2022-10-01T18:00:09.561Z,100.00
2022-10-01T18:02:42.612Z,100.00
2022-10-01T18:05:12.864Z,100.00
2022-10-01T18:07:40.568Z,100.00
2022-10-01T18:10:10.370Z,100.00
2022-10-01T18:12:37.289Z,100.00
2022-10-01T18:15:04.622Z,100.00
2022-10-01T18:17:36.585Z,100.00
2022-10-01T18:20:06.326Z,100.00
2022-10-01T18:22:34.343Z,100.00
2022-10-01T18:25:01.403Z,100.00
2022-10-01T18:27:28.371Z,100.00
2022-10-01T18:29:55.335Z,100.00
2022-10-01T18:32:24.950Z,100.00
2022-10-01T18:35:00.328Z,100.00
2022-10-01T18:37:44.049Z,100.00
2022-10-01T18:40:19.376Z,100.00
2022-10-01T18:42:54.409Z,100.00
2022-10-01T18:46:04.331Z,100.00
2022-10-01T18:49:16.806Z,100.00
2022-10-01T18:52:31.436Z,100.00
2022-10-01T18:55:40.616Z,100.00
2022-10-01T18:58:57.115Z,100.00
2022-10-01T19:02:01.253Z,100.00
2022-10-01T19:05:20.183Z,100.00
2022-10-01T19:08:27.194Z,100.00
2022-10-01T19:11:18.128Z,100.00
2022-10-01T19:13:59.398Z,100.00
2022-10-01T19:16:45.998Z,100.00
2022-10-01T19:22:50.827Z,100.00
2022-10-01T19:25:35.399Z,100.00
2022-10-01T19:40:21.869Z,100.00
2022-10-01T19:43:18.153Z,100.00
2022-10-01T19:45:55.196Z,100.00
2022-10-01T19:48:30.296Z,100.00
2022-10-01T19:51:08.260Z,100.00
2022-10-01T19:53:40.116Z,100.00
2022-10-01T19:56:11.213Z,100.00
2022-10-01T19:58:38.134Z,100.00
2022-10-01T20:01:05.394Z,100.00
2022-10-01T20:03:38.387Z,100.00
2022-10-01T20:06:30.600Z,100.00
2022-10-01T20:09:07.386Z,100.00
2022-10-01T20:11:44.209Z,100.00
2022-10-01T20:15:08.736Z,100.00
2022-10-01T20:18:14.746Z,100.00
2022-10-01T20:21:10.728Z,100.00
2022-10-01T20:23:58.605Z,100.00
2022-10-01T20:26:40.349Z,100.00
2022-10-01T20:29:46.057Z,100.00
2022-10-01T20:32:21.935Z,100.00
2022-10-01T20:35:23.903Z,100.00
2022-10-01T20:38:07.121Z,100.00
2022-10-01T20:40:55.910Z,100.00
2022-10-01T20:43:33.803Z,100.00
2022-10-01T20:46:09.291Z,100.00
2022-10-01T20:48:38.402Z,100.00
2022-10-01T20:51:43.095Z,100.00
2022-10-01T20:54:24.402Z,100.00
2022-10-01T20:57:07.652Z,100.00
2022-10-01T20:59:41.369Z,100.00
2022-10-01T21:03:07.193Z,100.00
2022-10-01T21:05:41.859Z,100.00
2022-10-01T21:08:35.886Z,100.00
2022-10-01T21:11:09.387Z,100.00
2022-10-01T21:13:43.893Z,100.00
2022-10-01T21:16:54.695Z,100.00
2022-10-01T21:20:02.791Z,100.00
2022-10-01T21:23:41.086Z,100.00
2022-10-01T21:26:29.538Z,100.00
2022-10-01T21:32:19.907Z,100.00
2022-10-01T21:35:11.707Z,100.00
2022-10-01T21:37:47.379Z,100.00
2022-10-01T21:41:15.534Z,100.00
2022-10-01T21:44:21.452Z,100.00
2022-10-01T21:47:33.611Z,100.00
2022-10-01T21:56:55.306Z,100.00
2022-10-01T21:59:52.484Z,100.00
2022-10-01T22:02:38.167Z,100.00
2022-10-01T22:05:37.920Z,100.00
2022-10-01T22:11:40.246Z,100.00
2022-10-01T22:14:19.380Z,100.00
2022-10-01T22:16:52.684Z,100.00
2022-10-01T22:19:33.261Z,100.00
2022-10-01T22:22:13.146Z,100.00
2022-10-01T22:24:54.430Z,100.00
2022-10-01T22:27:32.269Z,100.00
2022-10-01T22:30:11.373Z,100.00
2022-10-01T22:32:49.825Z,100.00
2022-10-01T22:35:22.642Z,100.00
2022-10-01T22:38:00.283Z,100.00
2022-10-01T22:40:32.592Z,100.00
2022-10-01T22:43:09.637Z,100.00
2022-10-01T22:46:14.901Z,100.00
2022-10-01T22:48:55.750Z,100.00
2022-10-01T22:52:07.470Z,100.00
2022-10-01T22:55:16.376Z,100.00
2022-10-01T22:58:44.595Z,100.00
2022-10-01T23:01:50.782Z,100.00
2022-10-01T23:05:09.534Z,100.00
2022-10-01T23:08:07.546Z,100.00
2022-10-01T23:10:52.799Z,100.00
2022-10-01T23:13:30.174Z,100.00
2022-10-01T23:16:23.588Z,100.00
2022-10-01T23:19:23.653Z,100.00
2022-10-01T23:22:12.076Z,100.00
2022-10-01T23:25:06.247Z,100.00
2022-10-01T23:28:07.137Z,100.00
2022-10-01T23:30:59.645Z,100.00
2022-10-01T23:34:23.796Z,100.00
2022-10-01T23:37:31.023Z,100.00
2022-10-01T23:40:11.643Z,100.00
2022-10-01T23:43:25.257Z,100.00
2022-10-01T23:46:00.278Z,100.00
2022-10-01T23:49:16.008Z,100.00
2022-10-01T23:52:06.156Z,100.00
2022-10-01T23:55:23.477Z,100.00
2022-10-01T23:57:58.631Z,100.00
